sensor_id;sensor_type;location;lat;lon;timestamp;noise_LAeq;noise_LA_min;noise_LA_max;noise_LA01;noise_LA95
69615;Laerm;56821;52.486;4.680;2023-02-28T00:00:03;32.27;30.35;35.07;;
69615;Laerm;56821;52.486;4.680;2023-02-28T00:00:20;31.95;30.28;33.95;;
69615;Laerm;56821;52.486;4.680;2023-02-28T00:00:30;34.14;31.03;36.48;;
69615;Laerm;56821;52.486;4.680;2023-02-28T00:00:41;34.11;30.84;36.73;;
69615;Laerm;56821;52.486;4.680;2023-02-28T00:00:51;32.60;30.75;34.73;;
69615;Laerm;56821;52.486;4.680;2023-02-28T00:01:01;32.04;30.62;33.69;;
69615;Laerm;56821;52.486;4.680;2023-02-28T00:01:12;31.90;30.17;34.04;;
69615;Laerm;56821;52.486;4.680;2023-02-28T00:01:23;32.92;30.49;35.96;;
69615;Laerm;56821;52.486;4.680;2023-02-28T00:01:33;33.08;31.30;35.78;;
69615;Laerm;56821;52.486;4.680;2023-02-28T00:01:43;32.67;30.74;34.79;;
69615;Laerm;56821;52.486;4.680;2023-02-28T00:01:53;31.88;30.41;34.01;;
69615;Laerm;56821;52.486;4.680;2023-02-28T00:02:04;31.80;30.35;33.42;;
69615;Laerm;56821;52.486;4.680;2023-02-28T00:02:14;31.47;29.77;33.30;;
69615;Laerm;56821;52.486;4.680;2023-02-28T00:02:24;33.14;30.19;36.40;;
69615;Laerm;56821;52.486;4.680;2023-02-28T00:02:34;34.81;31.73;40.22;;
69615;Laerm;56821;52.486;4.680;2023-02-28T00:02:45;34.17;31.86;36.90;;
69615;Laerm;56821;52.486;4.680;2023-02-28T00:02:55;33.56;30.86;36.28;;
69615;Laerm;56821;52.486;4.680;2023-02-28T00:03:05;34.19;32.20;36.43;;
69615;Laerm;56821;52.486;4.680;2023-02-28T00:03:15;34.50;31.82;36.98;;
69615;Laerm;56821;52.486;4.680;2023-02-28T00:03:26;33.77;30.30;37.65;;
69615;Laerm;56821;52.486;4.680;2023-02-28T00:03:36;33.16;30.65;35.73;;
69615;Laerm;56821;52.486;4.680;2023-02-28T00:03:46;32.91;30.58;35.02;;
69615;Laerm;56821;52.486;4.680;2023-02-28T00:03:57;33.31;31.10;35.61;;
69615;Laerm;56821;52.486;4.680;2023-02-28T00:04:07;33.03;31.24;35.26;;
69615;Laerm;56821;52.486;4.680;2023-02-28T00:04:19;32.22;29.87;46.56;;
69615;Laerm;56821;52.486;4.680;2023-02-28T00:04:29;33.00;29.90;36.55;;
69615;Laerm;56821;52.486;4.680;2023-02-28T00:04:39;32.67;30.22;36.53;;
69615;Laerm;56821;52.486;4.680;2023-02-28T00:04:49;32.04;29.81;34.46;;
69615;Laerm;56821;52.486;4.680;2023-02-28T00:05:03;31.47;29.66;34.00;;
69615;Laerm;56821;52.486;4.680;2023-02-28T00:05:14;31.19;29.66;34.14;;
69615;Laerm;56821;52.486;4.680;2023-02-28T00:05:25;32.98;30.38;35.31;;
69615;Laerm;56821;52.486;4.680;2023-02-28T00:05:36;32.55;30.49;35.07;;
69615;Laerm;56821;52.486;4.680;2023-02-28T00:05:46;32.41;29.90;35.04;;
69615;Laerm;56821;52.486;4.680;2023-02-28T00:05:56;34.24;31.27;36.94;;
69615;Laerm;56821;52.486;4.680;2023-02-28T00:06:07;33.81;30.40;36.84;;
69615;Laerm;56821;52.486;4.680;2023-02-28T00:06:17;32.12;30.12;39.43;;
69615;Laerm;56821;52.486;4.680;2023-02-28T00:06:28;32.66;28.93;36.33;;
69615;Laerm;56821;52.486;4.680;2023-02-28T00:06:38;34.07;31.61;36.63;;
69615;Laerm;56821;52.486;4.680;2023-02-28T00:06:48;35.70;33.13;38.19;;
69615;Laerm;56821;52.486;4.680;2023-02-28T00:06:58;35.25;31.74;38.15;;
69615;Laerm;56821;52.486;4.680;2023-02-28T00:07:09;32.35;30.57;35.23;;
69615;Laerm;56821;52.486;4.680;2023-02-28T00:07:19;31.12;29.36;32.94;;
69615;Laerm;56821;52.486;4.680;2023-02-28T00:07:30;31.48;30.02;32.69;;
69615;Laerm;56821;52.486;4.680;2023-02-28T00:07:40;32.65;30.48;35.99;;
69615;Laerm;56821;52.486;4.680;2023-02-28T00:07:52;34.99;31.70;42.17;;
69615;Laerm;56821;52.486;4.680;2023-02-28T00:08:02;35.83;32.25;41.01;;
69615;Laerm;56821;52.486;4.680;2023-02-28T00:08:12;34.94;31.90;37.68;;
69615;Laerm;56821;52.486;4.680;2023-02-28T00:08:23;33.87;31.73;37.34;;
69615;Laerm;56821;52.486;4.680;2023-02-28T00:08:33;32.93;30.66;35.68;;
69615;Laerm;56821;52.486;4.680;2023-02-28T00:08:43;32.41;30.43;34.88;;
69615;Laerm;56821;52.486;4.680;2023-02-28T00:08:54;34.26;32.62;36.26;;
69615;Laerm;56821;52.486;4.680;2023-02-28T00:09:04;32.19;29.38;35.07;;
69615;Laerm;56821;52.486;4.680;2023-02-28T00:09:14;31.37;29.73;33.24;;
69615;Laerm;56821;52.486;4.680;2023-02-28T00:09:24;32.01;29.82;34.46;;
69615;Laerm;56821;52.486;4.680;2023-02-28T00:09:35;34.52;32.15;37.31;;
69615;Laerm;56821;52.486;4.680;2023-02-28T00:09:45;34.84;31.34;37.86;;
69615;Laerm;56821;52.486;4.680;2023-02-28T00:09:55;34.75;31.33;38.03;;
69615;Laerm;56821;52.486;4.680;2023-02-28T00:10:06;33.20;31.31;35.65;;
69615;Laerm;56821;52.486;4.680;2023-02-28T00:10:27;32.25;30.34;36.50;;
69615;Laerm;56821;52.486;4.680;2023-02-28T00:10:38;34.43;30.72;38.77;;
69615;Laerm;56821;52.486;4.680;2023-02-28T00:10:48;35.90;31.35;39.71;;
69615;Laerm;56821;52.486;4.680;2023-02-28T00:11:02;33.27;30.95;35.98;;
69615;Laerm;56821;52.486;4.680;2023-02-28T00:11:13;34.14;30.83;37.51;;
69615;Laerm;56821;52.486;4.680;2023-02-28T00:11:24;34.56;32.08;36.92;;
69615;Laerm;56821;52.486;4.680;2023-02-28T00:11:34;34.13;30.85;37.99;;
69615;Laerm;56821;52.486;4.680;2023-02-28T00:11:44;32.98;29.73;37.68;;
69615;Laerm;56821;52.486;4.680;2023-02-28T00:11:54;32.36;29.87;34.62;;
69615;Laerm;56821;52.486;4.680;2023-02-28T00:12:05;31.57;29.76;34.12;;
69615;Laerm;56821;52.486;4.680;2023-02-28T00:12:19;30.53;28.55;34.18;;
69615;Laerm;56821;52.486;4.680;2023-02-28T00:12:30;29.50;28.21;30.59;;
69615;Laerm;56821;52.486;4.680;2023-02-28T00:12:40;29.35;28.25;30.55;;
69615;Laerm;56821;52.486;4.680;2023-02-28T00:12:51;29.81;28.62;31.01;;
69615;Laerm;56821;52.486;4.680;2023-02-28T00:13:03;31.46;29.26;34.14;;
69615;Laerm;56821;52.486;4.680;2023-02-28T00:13:14;33.72;29.93;35.74;;
69615;Laerm;56821;52.486;4.680;2023-02-28T00:13:24;32.09;29.90;36.03;;
69615;Laerm;56821;52.486;4.680;2023-02-28T00:13:35;31.74;29.64;34.54;;
69615;Laerm;56821;52.486;4.680;2023-02-28T00:13:47;31.38;29.51;33.76;;
69615;Laerm;56821;52.486;4.680;2023-02-28T00:13:57;31.24;28.90;35.49;;
69615;Laerm;56821;52.486;4.680;2023-02-28T00:14:08;30.51;29.12;32.04;;
69615;Laerm;56821;52.486;4.680;2023-02-28T00:14:18;30.70;28.96;34.66;;
69615;Laerm;56821;52.486;4.680;2023-02-28T00:14:30;30.92;29.43;32.51;;
69615;Laerm;56821;52.486;4.680;2023-02-28T00:14:40;31.55;29.31;34.25;;
69615;Laerm;56821;52.486;4.680;2023-02-28T00:14:50;31.97;29.80;33.86;;
69615;Laerm;56821;52.486;4.680;2023-02-28T00:15:01;32.09;29.84;35.62;;
69615;Laerm;56821;52.486;4.680;2023-02-28T00:15:11;32.11;30.10;35.03;;
69615;Laerm;56821;52.486;4.680;2023-02-28T00:15:22;33.55;31.13;36.20;;
69615;Laerm;56821;52.486;4.680;2023-02-28T00:15:33;36.35;32.44;38.82;;
69615;Laerm;56821;52.486;4.680;2023-02-28T00:15:43;33.59;31.83;35.88;;
69615;Laerm;56821;52.486;4.680;2023-02-28T00:15:58;34.59;32.03;38.49;;
69615;Laerm;56821;52.486;4.680;2023-02-28T00:16:10;34.20;30.75;36.76;;
69615;Laerm;56821;52.486;4.680;2023-02-28T00:16:21;34.00;31.30;36.16;;
69615;Laerm;56821;52.486;4.680;2023-02-28T00:16:32;33.85;29.61;36.37;;
69615;Laerm;56821;52.486;4.680;2023-02-28T00:16:42;31.79;30.23;33.46;;
69615;Laerm;56821;52.486;4.680;2023-02-28T00:16:52;34.61;31.24;38.71;;
69615;Laerm;56821;52.486;4.680;2023-02-28T00:17:02;34.57;31.91;37.85;;
69615;Laerm;56821;52.486;4.680;2023-02-28T00:17:12;35.61;30.63;53.45;;
69615;Laerm;56821;52.486;4.680;2023-02-28T00:17:23;32.95;30.76;37.11;;
69615;Laerm;56821;52.486;4.680;2023-02-28T00:17:33;32.36;30.04;34.61;;
69615;Laerm;56821;52.486;4.680;2023-02-28T00:17:44;31.02;29.42;33.46;;
69615;Laerm;56821;52.486;4.680;2023-02-28T00:17:54;31.24;29.05;34.81;;
69615;Laerm;56821;52.486;4.680;2023-02-28T00:18:04;31.71;29.66;34.11;;
69615;Laerm;56821;52.486;4.680;2023-02-28T00:18:15;30.40;29.19;31.90;;
69615;Laerm;56821;52.486;4.680;2023-02-28T00:18:25;30.26;29.08;32.28;;
69615;Laerm;56821;52.486;4.680;2023-02-28T00:18:35;29.90;28.41;32.00;;
69615;Laerm;56821;52.486;4.680;2023-02-28T00:18:45;29.92;28.48;32.24;;
69615;Laerm;56821;52.486;4.680;2023-02-28T00:18:57;30.61;28.16;34.55;;
69615;Laerm;56821;52.486;4.680;2023-02-28T00:19:07;30.27;28.75;32.32;;
69615;Laerm;56821;52.486;4.680;2023-02-28T00:19:17;31.43;28.86;33.97;;
69615;Laerm;56821;52.486;4.680;2023-02-28T00:19:28;32.55;29.22;36.93;;
69615;Laerm;56821;52.486;4.680;2023-02-28T00:19:38;33.54;31.00;36.66;;
69615;Laerm;56821;52.486;4.680;2023-02-28T00:19:48;37.01;33.38;39.27;;
69615;Laerm;56821;52.486;4.680;2023-02-28T00:19:58;33.11;29.96;39.07;;
69615;Laerm;56821;52.486;4.680;2023-02-28T00:20:12;30.42;29.04;32.91;;
69615;Laerm;56821;52.486;4.680;2023-02-28T00:20:23;29.79;28.44;31.24;;
69615;Laerm;56821;52.486;4.680;2023-02-28T00:20:33;30.98;29.21;33.89;;
69615;Laerm;56821;52.486;4.680;2023-02-28T00:20:43;34.75;30.64;37.82;;
69615;Laerm;56821;52.486;4.680;2023-02-28T00:20:53;33.60;29.94;38.09;;
69615;Laerm;56821;52.486;4.680;2023-02-28T00:21:04;31.12;28.86;33.55;;
69615;Laerm;56821;52.486;4.680;2023-02-28T00:21:15;30.89;29.19;32.79;;
69615;Laerm;56821;52.486;4.680;2023-02-28T00:21:26;32.42;29.95;35.78;;
69615;Laerm;56821;52.486;4.680;2023-02-28T00:21:36;40.07;33.35;49.74;;
69615;Laerm;56821;52.486;4.680;2023-02-28T00:21:46;38.32;34.49;45.76;;
69615;Laerm;56821;52.486;4.680;2023-02-28T00:21:57;33.09;30.80;36.67;;
69615;Laerm;56821;52.486;4.680;2023-02-28T00:22:07;31.15;29.31;32.96;;
69615;Laerm;56821;52.486;4.680;2023-02-28T00:22:18;30.69;29.49;32.04;;
69615;Laerm;56821;52.486;4.680;2023-02-28T00:22:29;32.24;29.81;34.44;;
69615;Laerm;56821;52.486;4.680;2023-02-28T00:22:40;31.83;29.95;33.61;;
69615;Laerm;56821;52.486;4.680;2023-02-28T00:22:51;32.13;29.35;37.60;;
69615;Laerm;56821;52.486;4.680;2023-02-28T00:23:02;31.32;29.65;34.68;;
69615;Laerm;56821;52.486;4.680;2023-02-28T00:23:12;32.96;30.16;35.32;;
69615;Laerm;56821;52.486;4.680;2023-02-28T00:23:22;36.28;33.05;38.60;;
69615;Laerm;56821;52.486;4.680;2023-02-28T00:23:32;33.30;30.85;36.42;;
69615;Laerm;56821;52.486;4.680;2023-02-28T00:23:43;31.55;29.60;35.34;;
69615;Laerm;56821;52.486;4.680;2023-02-28T00:23:53;31.61;29.59;35.76;;
69615;Laerm;56821;52.486;4.680;2023-02-28T00:24:04;31.88;29.71;33.67;;
69615;Laerm;56821;52.486;4.680;2023-02-28T00:24:14;32.41;31.01;33.82;;
69615;Laerm;56821;52.486;4.680;2023-02-28T00:24:24;32.42;30.79;35.20;;
69615;Laerm;56821;52.486;4.680;2023-02-28T00:24:34;32.89;31.02;35.09;;
69615;Laerm;56821;52.486;4.680;2023-02-28T00:24:45;32.23;29.87;34.47;;
69615;Laerm;56821;52.486;4.680;2023-02-28T00:24:55;32.40;29.75;34.82;;
69615;Laerm;56821;52.486;4.680;2023-02-28T00:25:06;31.94;30.02;34.37;;
69615;Laerm;56821;52.486;4.680;2023-02-28T00:25:21;30.99;29.46;32.82;;
69615;Laerm;56821;52.486;4.680;2023-02-28T00:25:31;30.52;28.70;34.99;;
69615;Laerm;56821;52.486;4.680;2023-02-28T00:25:41;30.53;28.92;33.52;;
69615;Laerm;56821;52.486;4.680;2023-02-28T00:25:52;30.28;28.75;32.82;;
69615;Laerm;56821;52.486;4.680;2023-02-28T00:26:02;30.76;29.21;32.86;;
69615;Laerm;56821;52.486;4.680;2023-02-28T00:26:13;31.11;29.03;33.39;;
69615;Laerm;56821;52.486;4.680;2023-02-28T00:26:23;33.25;30.89;35.78;;
69615;Laerm;56821;52.486;4.680;2023-02-28T00:26:33;32.53;30.25;36.44;;
69615;Laerm;56821;52.486;4.680;2023-02-28T00:26:43;33.66;30.50;35.84;;
69615;Laerm;56821;52.486;4.680;2023-02-28T00:26:54;33.16;31.13;35.99;;
69615;Laerm;56821;52.486;4.680;2023-02-28T00:27:04;31.82;29.50;35.84;;
69615;Laerm;56821;52.486;4.680;2023-02-28T00:27:14;33.02;29.81;39.12;;
69615;Laerm;56821;52.486;4.680;2023-02-28T00:27:24;33.62;30.92;35.78;;
69615;Laerm;56821;52.486;4.680;2023-02-28T00:27:35;32.42;30.17;35.46;;
69615;Laerm;56821;52.486;4.680;2023-02-28T00:27:46;32.24;30.58;34.57;;
69615;Laerm;56821;52.486;4.680;2023-02-28T00:27:56;37.33;32.97;40.99;;
69615;Laerm;56821;52.486;4.680;2023-02-28T00:28:06;31.81;29.59;34.59;;
69615;Laerm;56821;52.486;4.680;2023-02-28T00:28:17;30.19;28.32;32.58;;
69615;Laerm;56821;52.486;4.680;2023-02-28T00:28:27;29.46;27.99;30.92;;
69615;Laerm;56821;52.486;4.680;2023-02-28T00:28:37;29.39;28.23;31.11;;
69615;Laerm;56821;52.486;4.680;2023-02-28T00:28:47;29.83;28.21;31.38;;
69615;Laerm;56821;52.486;4.680;2023-02-28T00:28:58;31.84;29.71;33.94;;
69615;Laerm;56821;52.486;4.680;2023-02-28T00:29:08;31.71;29.72;36.91;;
69615;Laerm;56821;52.486;4.680;2023-02-28T00:29:19;32.20;30.30;34.77;;
69615;Laerm;56821;52.486;4.680;2023-02-28T00:29:29;31.72;29.66;34.40;;
69615;Laerm;56821;52.486;4.680;2023-02-28T00:29:40;30.57;28.70;33.45;;
69615;Laerm;56821;52.486;4.680;2023-02-28T00:29:50;30.65;28.89;34.00;;
69615;Laerm;56821;52.486;4.680;2023-02-28T00:30:00;30.56;29.14;32.36;;
69615;Laerm;56821;52.486;4.680;2023-02-28T00:30:12;31.18;29.59;32.57;;
69615;Laerm;56821;52.486;4.680;2023-02-28T00:30:23;31.83;30.36;33.39;;
69615;Laerm;56821;52.486;4.680;2023-02-28T00:30:33;34.10;31.38;36.59;;
69615;Laerm;56821;52.486;4.680;2023-02-28T00:30:43;35.07;30.67;37.57;;
69615;Laerm;56821;52.486;4.680;2023-02-28T00:30:53;31.53;30.06;33.63;;
69615;Laerm;56821;52.486;4.680;2023-02-28T00:31:04;31.49;29.53;35.42;;
69615;Laerm;56821;52.486;4.680;2023-02-28T00:31:14;30.46;28.32;34.30;;
69615;Laerm;56821;52.486;4.680;2023-02-28T00:31:25;29.98;28.71;31.55;;
69615;Laerm;56821;52.486;4.680;2023-02-28T00:31:35;29.05;27.89;30.53;;
69615;Laerm;56821;52.486;4.680;2023-02-28T00:31:45;28.84;27.73;29.89;;
69615;Laerm;56821;52.486;4.680;2023-02-28T00:31:55;28.89;27.92;29.92;;
69615;Laerm;56821;52.486;4.680;2023-02-28T00:32:06;29.76;27.80;35.47;;
69615;Laerm;56821;52.486;4.680;2023-02-28T00:32:16;29.18;27.87;30.13;;
69615;Laerm;56821;52.486;4.680;2023-02-28T00:32:28;29.12;27.96;30.48;;
69615;Laerm;56821;52.486;4.680;2023-02-28T00:32:39;29.71;27.72;36.35;;
69615;Laerm;56821;52.486;4.680;2023-02-28T00:32:49;30.63;28.88;34.79;;
69615;Laerm;56821;52.486;4.680;2023-02-28T00:33:00;30.35;28.98;33.35;;
69615;Laerm;56821;52.486;4.680;2023-02-28T00:33:10;30.36;28.76;32.30;;
69615;Laerm;56821;52.486;4.680;2023-02-28T00:33:20;30.81;29.06;32.63;;
69615;Laerm;56821;52.486;4.680;2023-02-28T00:33:30;31.90;29.31;36.13;;
69615;Laerm;56821;52.486;4.680;2023-02-28T00:33:41;32.17;30.01;34.15;;
69615;Laerm;56821;52.486;4.680;2023-02-28T00:33:51;31.47;29.68;34.75;;
69615;Laerm;56821;52.486;4.680;2023-02-28T00:34:01;30.81;29.04;33.49;;
69615;Laerm;56821;52.486;4.680;2023-02-28T00:34:11;30.01;28.70;31.22;;
69615;Laerm;56821;52.486;4.680;2023-02-28T00:34:22;30.34;29.11;31.92;;
69615;Laerm;56821;52.486;4.680;2023-02-28T00:34:32;31.07;29.57;32.78;;
69615;Laerm;56821;52.486;4.680;2023-02-28T00:34:47;35.79;30.66;39.69;;
69615;Laerm;56821;52.486;4.680;2023-02-28T00:34:57;31.07;28.87;35.77;;
69615;Laerm;56821;52.486;4.680;2023-02-28T00:35:08;29.69;28.29;31.46;;
69615;Laerm;56821;52.486;4.680;2023-02-28T00:35:18;29.31;28.11;30.77;;
69615;Laerm;56821;52.486;4.680;2023-02-28T00:35:29;29.77;27.96;31.55;;
69615;Laerm;56821;52.486;4.680;2023-02-28T00:35:39;29.28;28.30;30.37;;
69615;Laerm;56821;52.486;4.680;2023-02-28T00:35:49;30.55;28.80;35.10;;
69615;Laerm;56821;52.486;4.680;2023-02-28T00:36:03;31.32;28.81;36.29;;
69615;Laerm;56821;52.486;4.680;2023-02-28T00:36:13;31.28;29.32;34.04;;
69615;Laerm;56821;52.486;4.680;2023-02-28T00:36:24;30.51;28.96;33.05;;
69615;Laerm;56821;52.486;4.680;2023-02-28T00:36:34;35.40;30.05;41.30;;
69615;Laerm;56821;52.486;4.680;2023-02-28T00:36:44;35.56;30.45;40.21;;
69615;Laerm;56821;52.486;4.680;2023-02-28T00:36:58;31.14;28.86;34.54;;
69615;Laerm;56821;52.486;4.680;2023-02-28T00:37:09;30.11;28.62;31.92;;
69615;Laerm;56821;52.486;4.680;2023-02-28T00:37:20;30.17;28.64;31.87;;
69615;Laerm;56821;52.486;4.680;2023-02-28T00:37:30;31.12;28.80;36.71;;
69615;Laerm;56821;52.486;4.680;2023-02-28T00:37:40;31.81;29.53;35.46;;
69615;Laerm;56821;52.486;4.680;2023-02-28T00:37:51;30.97;28.84;34.35;;
69615;Laerm;56821;52.486;4.680;2023-02-28T00:38:01;31.22;29.46;33.96;;
69615;Laerm;56821;52.486;4.680;2023-02-28T00:38:12;29.82;28.58;31.36;;
69615;Laerm;56821;52.486;4.680;2023-02-28T00:38:23;30.29;28.86;31.94;;
69615;Laerm;56821;52.486;4.680;2023-02-28T00:38:33;30.74;28.60;33.51;;
69615;Laerm;56821;52.486;4.680;2023-02-28T00:38:43;35.45;30.78;38.46;;
69615;Laerm;56821;52.486;4.680;2023-02-28T00:38:54;31.58;28.89;36.22;;
69615;Laerm;56821;52.486;4.680;2023-02-28T00:39:04;29.64;28.38;31.83;;
69615;Laerm;56821;52.486;4.680;2023-02-28T00:39:14;29.31;28.02;30.55;;
69615;Laerm;56821;52.486;4.680;2023-02-28T00:39:25;31.16;28.93;35.20;;
69615;Laerm;56821;52.486;4.680;2023-02-28T00:39:35;31.63;28.97;35.21;;
69615;Laerm;56821;52.486;4.680;2023-02-28T00:39:46;30.36;28.65;33.50;;
69615;Laerm;56821;52.486;4.680;2023-02-28T00:39:56;30.66;29.28;32.23;;
69615;Laerm;56821;52.486;4.680;2023-02-28T00:40:07;32.32;29.67;34.75;;
69615;Laerm;56821;52.486;4.680;2023-02-28T00:40:18;32.71;29.62;37.92;;
69615;Laerm;56821;52.486;4.680;2023-02-28T00:40:28;33.98;31.44;38.67;;
69615;Laerm;56821;52.486;4.680;2023-02-28T00:40:39;33.29;30.23;36.13;;
69615;Laerm;56821;52.486;4.680;2023-02-28T00:40:49;31.82;29.86;35.22;;
69615;Laerm;56821;52.486;4.680;2023-02-28T00:40:59;30.72;28.78;33.20;;
69615;Laerm;56821;52.486;4.680;2023-02-28T00:41:14;29.86;28.21;32.25;;
69615;Laerm;56821;52.486;4.680;2023-02-28T00:41:24;29.38;28.08;30.64;;
69615;Laerm;56821;52.486;4.680;2023-02-28T00:41:34;32.20;29.06;36.15;;
69615;Laerm;56821;52.486;4.680;2023-02-28T00:41:45;32.32;29.22;34.73;;
69615;Laerm;56821;52.486;4.680;2023-02-28T00:41:55;31.46;29.58;33.94;;
69615;Laerm;56821;52.486;4.680;2023-02-28T00:42:06;31.21;29.40;33.38;;
69615;Laerm;56821;52.486;4.680;2023-02-28T00:42:16;31.26;28.98;33.58;;
69615;Laerm;56821;52.486;4.680;2023-02-28T00:42:26;30.88;29.23;34.14;;
69615;Laerm;56821;52.486;4.680;2023-02-28T00:42:37;29.83;28.54;31.25;;
69615;Laerm;56821;52.486;4.680;2023-02-28T00:42:47;29.93;28.22;33.05;;
69615;Laerm;56821;52.486;4.680;2023-02-28T00:42:57;29.43;27.90;31.73;;
69615;Laerm;56821;52.486;4.680;2023-02-28T00:43:07;30.27;28.92;32.43;;
69615;Laerm;56821;52.486;4.680;2023-02-28T00:43:17;31.69;29.65;34.98;;
69615;Laerm;56821;52.486;4.680;2023-02-28T00:43:28;37.36;34.21;40.08;;
69615;Laerm;56821;52.486;4.680;2023-02-28T00:43:38;36.56;31.94;40.30;;
69615;Laerm;56821;52.486;4.680;2023-02-28T00:43:48;30.66;28.42;34.25;;
69615;Laerm;56821;52.486;4.680;2023-02-28T00:43:59;28.94;28.00;29.92;;
69615;Laerm;56821;52.486;4.680;2023-02-28T00:44:09;29.19;28.02;30.55;;
69615;Laerm;56821;52.486;4.680;2023-02-28T00:44:19;30.39;28.52;32.15;;
69615;Laerm;56821;52.486;4.680;2023-02-28T00:44:31;31.05;28.80;34.66;;
69615;Laerm;56821;52.486;4.680;2023-02-28T00:44:42;32.24;29.32;34.62;;
69615;Laerm;56821;52.486;4.680;2023-02-28T00:44:52;30.37;28.89;32.51;;
69615;Laerm;56821;52.486;4.680;2023-02-28T00:45:03;31.91;29.26;34.16;;
69615;Laerm;56821;52.486;4.680;2023-02-28T00:45:16;31.84;30.28;33.55;;
69615;Laerm;56821;52.486;4.680;2023-02-28T00:45:26;31.61;29.70;34.67;;
69615;Laerm;56821;52.486;4.680;2023-02-28T00:45:36;32.76;30.04;37.51;;
69615;Laerm;56821;52.486;4.680;2023-02-28T00:45:46;31.57;29.73;34.62;;
69615;Laerm;56821;52.486;4.680;2023-02-28T00:45:57;33.40;30.78;38.49;;
69615;Laerm;56821;52.486;4.680;2023-02-28T00:46:07;35.78;32.46;38.74;;
69615;Laerm;56821;52.486;4.680;2023-02-28T00:46:17;35.90;31.10;40.13;;
69615;Laerm;56821;52.486;4.680;2023-02-28T00:46:27;32.76;30.71;36.14;;
69615;Laerm;56821;52.486;4.680;2023-02-28T00:46:37;31.96;29.61;35.77;;
69615;Laerm;56821;52.486;4.680;2023-02-28T00:46:48;31.54;28.92;34.33;;
69615;Laerm;56821;52.486;4.680;2023-02-28T00:46:58;33.26;30.41;38.65;;
69615;Laerm;56821;52.486;4.680;2023-02-28T00:47:09;33.16;30.63;36.87;;
69615;Laerm;56821;52.486;4.680;2023-02-28T00:47:19;33.01;29.47;38.73;;
69615;Laerm;56821;52.486;4.680;2023-02-28T00:47:29;30.43;28.45;33.75;;
69615;Laerm;56821;52.486;4.680;2023-02-28T00:47:39;30.00;28.32;31.70;;
69615;Laerm;56821;52.486;4.680;2023-02-28T00:47:50;31.91;29.86;34.68;;
69615;Laerm;56821;52.486;4.680;2023-02-28T00:48:00;35.63;32.35;38.15;;
69615;Laerm;56821;52.486;4.680;2023-02-28T00:48:10;30.46;29.20;33.43;;
69615;Laerm;56821;52.486;4.680;2023-02-28T00:48:20;30.25;28.31;32.13;;
69615;Laerm;56821;52.486;4.680;2023-02-28T00:48:31;30.67;29.00;32.02;;
69615;Laerm;56821;52.486;4.680;2023-02-28T00:48:41;29.87;28.44;31.96;;
69615;Laerm;56821;52.486;4.680;2023-02-28T00:48:51;30.04;28.39;33.36;;
69615;Laerm;56821;52.486;4.680;2023-02-28T00:49:02;30.88;29.61;34.16;;
69615;Laerm;56821;52.486;4.680;2023-02-28T00:49:12;31.21;29.16;33.26;;
69615;Laerm;56821;52.486;4.680;2023-02-28T00:49:23;30.39;28.80;32.43;;
69615;Laerm;56821;52.486;4.680;2023-02-28T00:49:33;30.59;29.03;33.46;;
69615;Laerm;56821;52.486;4.680;2023-02-28T00:49:43;31.12;29.46;33.04;;
69615;Laerm;56821;52.486;4.680;2023-02-28T00:49:53;31.68;30.09;33.29;;
69615;Laerm;56821;52.486;4.680;2023-02-28T00:50:04;32.48;30.00;36.93;;
69615;Laerm;56821;52.486;4.680;2023-02-28T00:50:20;34.14;29.87;39.11;;
69615;Laerm;56821;52.486;4.680;2023-02-28T00:50:31;31.90;29.46;35.04;;
69615;Laerm;56821;52.486;4.680;2023-02-28T00:50:41;31.28;29.64;33.26;;
69615;Laerm;56821;52.486;4.680;2023-02-28T00:50:52;31.29;29.45;33.72;;
69615;Laerm;56821;52.486;4.680;2023-02-28T00:51:03;32.42;29.79;35.19;;
69615;Laerm;56821;52.486;4.680;2023-02-28T00:51:13;34.29;31.99;36.79;;
69615;Laerm;56821;52.486;4.680;2023-02-28T00:51:23;35.20;32.68;38.26;;
69615;Laerm;56821;52.486;4.680;2023-02-28T00:51:33;35.45;30.43;39.89;;
69615;Laerm;56821;52.486;4.680;2023-02-28T00:51:43;32.67;30.61;35.35;;
69615;Laerm;56821;52.486;4.680;2023-02-28T00:51:54;31.04;29.07;33.56;;
69615;Laerm;56821;52.486;4.680;2023-02-28T00:52:04;32.29;29.82;36.81;;
69615;Laerm;56821;52.486;4.680;2023-02-28T00:52:15;30.04;28.35;31.85;;
69615;Laerm;56821;52.486;4.680;2023-02-28T00:52:25;31.47;29.56;33.59;;
69615;Laerm;56821;52.486;4.680;2023-02-28T00:52:35;35.09;31.76;37.42;;
69615;Laerm;56821;52.486;4.680;2023-02-28T00:52:46;30.32;28.81;32.98;;
69615;Laerm;56821;52.486;4.680;2023-02-28T00:52:56;30.98;29.18;32.73;;
69615;Laerm;56821;52.486;4.680;2023-02-28T00:53:06;33.68;31.10;35.44;;
69615;Laerm;56821;52.486;4.680;2023-02-28T00:53:16;31.19;28.84;35.32;;
69615;Laerm;56821;52.486;4.680;2023-02-28T00:53:27;30.78;29.21;32.76;;
69615;Laerm;56821;52.486;4.680;2023-02-28T00:53:37;29.73;28.31;31.27;;
69615;Laerm;56821;52.486;4.680;2023-02-28T00:53:47;29.65;27.99;33.15;;
69615;Laerm;56821;52.486;4.680;2023-02-28T00:53:57;29.26;27.87;30.56;;
69615;Laerm;56821;52.486;4.680;2023-02-28T00:54:08;29.35;28.07;31.36;;
69615;Laerm;56821;52.486;4.680;2023-02-28T00:54:18;29.45;28.21;30.59;;
69615;Laerm;56821;52.486;4.680;2023-02-28T00:54:28;30.34;28.41;34.15;;
69615;Laerm;56821;52.486;4.680;2023-02-28T00:54:38;30.24;28.25;32.75;;
69615;Laerm;56821;52.486;4.680;2023-02-28T00:54:49;30.29;28.26;32.65;;
69615;Laerm;56821;52.486;4.680;2023-02-28T00:54:59;31.84;29.62;33.52;;
69615;Laerm;56821;52.486;4.680;2023-02-28T00:55:09;33.72;31.62;35.34;;
69615;Laerm;56821;52.486;4.680;2023-02-28T00:55:19;34.48;32.54;37.09;;
69615;Laerm;56821;52.486;4.680;2023-02-28T00:55:30;33.39;29.93;36.65;;
69615;Laerm;56821;52.486;4.680;2023-02-28T00:55:40;31.01;29.42;32.60;;
69615;Laerm;56821;52.486;4.680;2023-02-28T00:55:50;31.55;29.94;34.55;;
69615;Laerm;56821;52.486;4.680;2023-02-28T00:56:01;31.91;29.90;33.87;;
69615;Laerm;56821;52.486;4.680;2023-02-28T00:56:11;32.20;30.18;35.22;;
69615;Laerm;56821;52.486;4.680;2023-02-28T00:56:21;33.57;30.49;36.85;;
69615;Laerm;56821;52.486;4.680;2023-02-28T00:56:31;33.77;29.99;37.72;;
69615;Laerm;56821;52.486;4.680;2023-02-28T00:56:41;33.01;30.46;35.77;;
69615;Laerm;56821;52.486;4.680;2023-02-28T00:56:52;33.72;29.26;37.23;;
69615;Laerm;56821;52.486;4.680;2023-02-28T00:57:02;29.72;28.28;30.80;;
69615;Laerm;56821;52.486;4.680;2023-02-28T00:57:12;29.51;27.66;31.66;;
69615;Laerm;56821;52.486;4.680;2023-02-28T00:57:22;30.61;28.80;34.80;;
69615;Laerm;56821;52.486;4.680;2023-02-28T00:57:32;30.41;28.30;34.53;;
69615;Laerm;56821;52.486;4.680;2023-02-28T00:57:43;29.33;28.10;32.05;;
69615;Laerm;56821;52.486;4.680;2023-02-28T00:57:53;30.67;28.19;43.37;;
69615;Laerm;56821;52.486;4.680;2023-02-28T00:58:03;29.82;28.47;31.92;;
69615;Laerm;56821;52.486;4.680;2023-02-28T00:58:13;29.94;28.39;31.82;;
69615;Laerm;56821;52.486;4.680;2023-02-28T00:58:24;29.95;28.26;33.48;;
69615;Laerm;56821;52.486;4.680;2023-02-28T00:58:34;29.70;28.23;31.48;;
69615;Laerm;56821;52.486;4.680;2023-02-28T00:58:44;30.54;29.15;32.82;;
69615;Laerm;56821;52.486;4.680;2023-02-28T00:58:54;30.06;28.62;31.88;;
69615;Laerm;56821;52.486;4.680;2023-02-28T00:59:04;30.88;28.41;35.80;;
69615;Laerm;56821;52.486;4.680;2023-02-28T00:59:15;30.12;28.85;32.36;;